Time;durP1;ratioP1;P1;durP2;ratioP2;P2;SDS_P1;SDS_P2;PMS_P1;PMS_P2;Temp;Humidity;BMP_temperature;BMP_pressure;BME280_temperature;BME280_humidity;BME280_pressure;Samples;Min_cycle;Max_cycle;Signal;HPM_P1;HPM_P2
2022/10/27 10:47:59;;;;;;;10.50;5.80;;;19.90;65.30;;;;;;5999278;22;5300370;-79
2022/10/27 10:50:26;;;;;;;10.02;5.78;;;20.00;64.60;;;;;;6212299;23;20011;-77
2022/10/27 10:52:55;;;;;;;17.02;6.63;;;20.00;64.60;;;;;;6220102;23;20016;-77
2022/10/27 10:55:32;;;;;;;17.20;6.28;;;20.10;64.70;;;;;;6220699;23;20301;-76
2022/10/27 10:57:58;;;;;;;13.02;7.22;;;20.10;64.50;;;;;;6220394;23;20012;-77
2022/10/27 11:00:26;;;;;;;12.80;6.43;;;20.20;64.10;;;;;;6220419;23;20436;-74
2022/10/27 11:02:59;;;;;;;13.20;7.60;;;20.20;64.10;;;;;;6220047;23;20051;-77
2022/10/27 11:05:33;;;;;;;23.97;7.90;;;20.30;64.10;;;;;;6220103;23;20401;-75
2022/10/27 11:07:59;;;;;;;14.38;7.93;;;20.30;64.10;;;;;;6247466;23;19993;-75
2022/10/27 11:10:29;;;;;;;22.30;10.45;;;20.40;64.30;;;;;;6247339;23;20004;-76
2022/10/27 11:13:21;;;;;;;18.52;9.18;;;20.50;64.20;;;;;;6247357;23;20004;-75
2022/10/27 11:15:57;;;;;;;18.15;8.80;;;20.50;64.00;;;;;;6246195;23;20004;-76
2022/10/27 11:18:34;;;;;;;22.30;10.18;;;20.60;63.90;;;;;;6247355;23;20023;-77
2022/10/27 11:21:30;;;;;;;32.75;10.65;;;20.70;63.70;;;;;;6245702;23;20079;-77
2022/10/27 11:24:17;;;;;;;21.60;9.57;;;20.80;63.70;;;;;;6207219;23;20000;-78
2022/10/27 11:26:54;;;;;;;25.88;10.75;;;20.80;64.20;;;;;;6220405;23;20007;-76
2022/10/27 11:30:02;;;;;;;20.13;9.60;;;20.90;62.70;;;;;;6247261;23;20067;-76
2022/10/27 11:32:51;;;;;;;20.35;8.70;;;21.00;62.90;;;;;;6099779;23;20117;-76
2022/10/27 11:35:25;;;;;;;20.20;9.65;;;21.00;62.80;;;;;;6125734;23;20473;-76
2022/10/27 11:38:06;;;;;;;;;;;21.10;62.60;;;;;;6100989;23;20037;-80
2022/10/27 11:40:56;;;;;;;17.63;9.25;;;21.20;63.60;;;;;;6100512;23;20245;-85
2022/10/27 11:43:28;;;;;;;18.10;8.90;;;21.30;62.20;;;;;;6100427;23;20002;-79
2022/10/27 11:46:10;;;;;;;15.93;7.65;;;21.30;61.90;;;;;;6101634;23;20016;-83
2022/10/27 11:48:46;;;;;;;15.00;7.70;;;21.30;62.00;;;;;;6133655;23;20014;-77
2022/10/27 11:51:28;;;;;;;16.52;8.00;;;21.40;61.60;;;;;;6125594;23;20013;-81
2022/10/27 11:53:55;;;;;;;20.38;7.03;;;21.40;61.60;;;;;;6125593;23;20021;-74
2022/10/27 11:56:27;;;;;;;13.43;6.20;;;21.50;61.30;;;;;;6124320;23;20072;-75
2022/10/27 11:59:09;;;;;;;16.00;6.47;;;21.50;61.30;;;;;;6099134;23;20455;-75
2022/10/27 12:02:38;;;;;;;13.23;5.60;;;21.50;61.00;;;;;;6124178;23;20010;-74
2022/10/27 12:05:11;;;;;;;14.63;6.03;;;21.60;61.00;;;;;;5981995;24;20028;-79
2022/10/27 12:07:58;;;;;;;10.40;5.40;;;21.70;60.70;;;;;;5983150;23;20039;-86
2022/10/27 12:10:42;;;;;;;14.48;6.68;;;21.70;60.80;;;;;;6197536;23;20301;-84
2022/10/27 12:13:12;;;;;;;18.00;6.30;;;21.80;60.80;;;;;;6222563;23;20031;-84
2022/10/27 12:15:38;;;;;;;11.95;5.93;;;21.90;59.70;;;;;;6250058;23;20113;-86
2022/10/27 12:18:36;;;;;;;12.00;5.15;;;21.90;59.40;;;;;;6224213;23;20004;-85
2022/10/27 12:21:17;;;;;;;16.27;5.63;;;21.90;59.90;;;;;;6217920;23;20089;-86
2022/10/27 12:23:52;;;;;;;13.80;5.72;;;21.90;59.80;;;;;;6249832;23;20004;-85
2022/10/27 12:26:45;;;;;;;16.08;6.45;;;22.00;59.90;;;;;;6219888;23;20058;-83
2022/10/27 12:29:14;;;;;;;12.18;4.38;;;22.00;60.00;;;;;;6220901;23;20011;-83
2022/10/27 12:32:13;;;;;;;14.18;4.32;;;22.10;59.80;;;;;;6248453;23;20425;-83
2022/10/27 12:34:46;;;;;;;12.95;3.75;;;22.10;59.50;;;;;;6249030;23;20637;-80
2022/10/27 12:37:27;;;;;;;20.13;5.10;;;22.20;59.40;;;;;;6246323;23;20436;-78
2022/10/27 12:40:26;;;;;;;10.55;3.95;;;22.20;58.80;;;;;;6245904;23;20432;-80
2022/10/27 12:43:06;;;;;;;12.27;4.68;;;22.20;58.70;;;;;;6123192;23;20069;-77
2022/10/27 12:45:46;;;;;;;17.50;4.30;;;22.20;58.50;;;;;;6123547;23;20010;-77
2022/10/27 12:48:15;;;;;;;10.95;4.90;;;22.30;58.70;;;;;;6098780;23;20166;-80
2022/10/27 12:50:53;;;;;;;11.50;3.63;;;22.30;58.10;;;;;;6099346;23;19998;-76
2022/10/27 12:53:30;;;;;;;11.02;4.13;;;22.30;58.60;;;;;;6099248;23;20061;-74
2022/10/27 12:56:04;;;;;;;12.15;3.58;;;22.30;58.40;;;;;;6123767;23;20005;-74
2022/10/27 12:58:48;;;;;;;8.40;3.22;;;22.30;57.80;;;;;;6123705;23;20005;-76
2022/10/27 13:01:23;;;;;;;12.35;4.30;;;22.40;58.00;;;;;;6099012;23;19998;-76
2022/10/27 13:04:24;;;;;;;13.10;4.20;;;22.40;58.00;;;;;;6099233;23;20012;-76
2022/10/27 13:07:09;;;;;;;18.10;5.57;;;22.40;58.10;;;;;;6099203;23;20002;-74
2022/10/27 13:10:00;;;;;;;10.88;4.85;;;22.40;58.10;;;;;;6121953;23;20017;-72
2022/10/27 13:12:56;;;;;;;9.27;3.70;;;22.40;58.30;;;;;;6120190;23;20037;-72
2022/10/27 13:15:55;;;;;;;13.90;3.92;;;22.50;58.30;;;;;;6098248;23;20086;-72
2022/10/27 13:18:24;;;;;;;9.77;4.03;;;22.50;58.20;;;;;;6121488;23;20002;-72
2022/10/27 13:20:58;;;;;;;10.45;3.88;;;22.40;57.60;;;;;;6218041;23;20007;-73
2022/10/27 13:23:30;;;;;;;10.02;3.90;;;22.50;57.70;;;;;;6219291;23;20004;-73
2022/10/27 13:26:41;;;;;;;14.02;4.50;;;22.50;57.60;;;;;;6219170;23;19996;-73
2022/10/27 13:29:29;;;;;;;7.47;3.10;;;22.50;57.60;;;;;;6168934;23;20011;-73
2022/10/27 13:32:26;;;;;;;8.77;3.30;;;22.50;57.30;;;;;;6246109;23;20000;-73
2022/10/27 13:35:01;;;;;;;6.68;3.08;;;22.50;56.70;;;;;;6219308;23;20012;-73
2022/10/27 13:37:38;;;;;;;7.22;3.30;;;22.50;56.80;;;;;;6219317;23;20511;-73
2022/10/27 13:40:19;;;;;;;7.00;3.17;;;22.50;56.40;;;;;;6219224;23;20000;-73
2022/10/27 13:42:56;;;;;;;10.23;3.65;;;22.50;56.80;;;;;;6245822;23;20000;-73
2022/10/27 13:45:36;;;;;;;5.72;2.47;;;22.50;56.20;;;;;;6219374;23;20001;-73
2022/10/27 13:48:13;;;;;;;5.63;2.80;;;22.60;56.40;;;;;;6213631;23;20020;-73
2022/10/27 13:50:47;;;;;;;4.70;2.08;;;22.60;56.10;;;;;;6215652;23;20115;-73
2022/10/27 13:53:15;;;;;;;;;;;22.60;56.40;;;;;;6216188;23;20009;-72
2022/10/27 13:55:46;;;;;;;12.05;2.92;;;22.60;57.30;;;;;;6213664;23;19907;-73
2022/10/27 13:58:20;;;;;;;8.65;2.78;;;22.60;56.80;;;;;;6215710;23;20000;-72
2022/10/27 14:01:16;;;;;;;7.35;2.38;;;22.70;56.70;;;;;;6214115;23;20074;-73
2022/10/27 14:04:15;;;;;;;10.85;2.33;;;22.60;56.40;;;;;;6214063;23;20011;-73
2022/10/27 14:06:43;;;;;;;9.27;3.22;;;22.70;56.80;;;;;;6207961;23;20057;-73
2022/10/27 14:09:23;;;;;;;6.07;2.65;;;22.70;57.40;;;;;;6213841;23;20000;-73
2022/10/27 14:11:52;;;;;;;6.40;2.58;;;22.70;57.20;;;;;;6214098;23;20001;-73
2022/10/27 14:14:25;;;;;;;9.77;2.97;;;22.70;57.20;;;;;;6213979;23;20013;-73
2022/10/27 14:16:52;;;;;;;6.38;2.72;;;22.70;57.20;;;;;;6214315;23;20005;-73
2022/10/27 14:19:26;;;;;;;8.48;2.72;;;22.70;57.20;;;;;;6213984;23;20076;-72
2022/10/27 14:21:54;;;;;;;4.22;2.55;;;22.60;57.00;;;;;;6213847;23;20058;-72
2022/10/27 14:24:56;;;;;;;4.70;2.00;;;22.70;57.20;;;;;;6215694;23;20416;-73
2022/10/27 14:27:23;;;;;;;7.93;2.03;;;22.60;57.00;;;;;;6211099;23;20559;-73
2022/10/27 14:29:49;;;;;;;8.65;2.70;;;22.60;57.10;;;;;;6215599;23;20317;-73
2022/10/27 14:32:24;;;;;;;6.85;2.33;;;22.70;57.00;;;;;;6216874;23;19997;-73
2022/10/27 14:34:51;;;;;;;13.40;2.10;;;22.60;56.40;;;;;;6216820;23;20064;-73
2022/10/27 14:37:28;;;;;;;7.45;1.98;;;22.60;56.30;;;;;;6215077;23;20001;-73
2022/10/27 14:39:58;;;;;;;6.25;2.00;;;22.60;56.40;;;;;;6217264;23;20008;-73
2022/10/27 14:42:32;;;;;;;4.30;1.73;;;22.60;56.50;;;;;;6217516;23;20008;-72
2022/10/27 14:45:03;;;;;;;4.38;1.58;;;22.50;56.10;;;;;;6217015;23;20084;-73
2022/10/27 14:47:29;;;;;;;4.20;1.83;;;22.50;56.30;;;;;;6214848;23;20457;-73
2022/10/27 14:50:09;;;;;;;12.45;3.17;;;22.40;56.30;;;;;;6190303;23;20420;-72
2022/10/27 14:52:41;;;;;;;9.55;2.22;;;22.30;56.20;;;;;;6216794;23;20008;-73
2022/10/27 14:55:24;;;;;;;5.82;2.03;;;22.20;56.20;;;;;;6190259;23;20004;-73
2022/10/27 14:57:50;;;;;;;6.82;2.15;;;22.20;56.10;;;;;;6217030;23;20001;-73
2022/10/27 15:00:26;;;;;;;3.95;1.65;;;22.10;56.20;;;;;;6190193;23;20425;-72
2022/10/27 15:02:54;;;;;;;5.55;2.00;;;22.10;56.30;;;;;;6190194;23;20004;-72
2022/10/27 15:05:23;;;;;;;7.00;2.15;;;22.00;56.40;;;;;;6216558;23;20024;-72
2022/10/27 15:07:53;;;;;;;8.10;1.80;;;21.90;56.60;;;;;;6189743;23;20011;-72
2022/10/27 15:10:19;;;;;;;9.38;2.47;;;21.90;56.70;;;;;;6189282;23;20027;-73
2022/10/27 15:12:52;;;;;;;5.65;1.50;;;21.80;56.80;;;;;;6189530;23;20012;-72
2022/10/27 15:15:19;;;;;;;5.60;1.80;;;21.70;56.80;;;;;;6216673;23;20480;-73
2022/10/27 15:17:46;;;;;;;7.85;2.00;;;21.60;57.00;;;;;;6216264;23;20417;-72
2022/10/27 15:20:16;;;;;;;6.15;2.42;;;21.50;57.20;;;;;;6216434;23;19997;-72
2022/10/27 15:22:49;;;;;;;8.52;2.55;;;21.40;57.40;;;;;;6190023;23;20036;-72
2022/10/27 15:25:17;;;;;;;6.23;2.13;;;21.40;57.60;;;;;;6189832;23;20420;-72
2022/10/27 15:27:44;;;;;;;5.20;2.10;;;21.30;57.80;;;;;;6216169;23;20332;-73
2022/10/27 15:30:16;;;;;;;8.93;2.33;;;21.30;57.90;;;;;;6189692;23;20329;-73
2022/10/27 15:32:42;;;;;;;8.35;2.60;;;21.20;58.10;;;;;;6216161;23;20001;-73
2022/10/27 15:35:28;;;;;;;9.57;2.45;;;21.10;58.10;;;;;;6189522;23;20087;-73
2022/10/27 15:37:55;;;;;;;5.15;1.80;;;20.90;58.10;;;;;;6216038;23;20000;-72
2022/10/27 15:40:33;;;;;;;4.18;2.25;;;20.90;58.20;;;;;;6189611;23;20001;-72
2022/10/27 15:43:00;;;;;;;4.93;2.00;;;20.80;58.30;;;;;;6189937;23;20058;-73
2022/10/27 15:45:43;;;;;;;9.30;2.00;;;20.70;58.30;;;;;;6189654;23;20298;-72
2022/10/27 15:48:33;;;;;;;10.88;2.55;;;20.60;58.50;;;;;;6213869;22;20405;-73
2022/10/27 15:51:16;;;;;;;5.18;2.05;;;20.50;58.60;;;;;;6275992;22;20305;-73
2022/10/27 15:53:54;;;;;;;8.57;2.45;;;20.40;58.70;;;;;;6277024;22;20003;-73
2022/10/27 15:56:31;;;;;;;3.22;1.85;;;20.30;58.80;;;;;;6250343;22;20000;-73
2022/10/27 15:59:14;;;;;;;6.72;1.90;;;20.10;58.90;;;;;;6249858;22;20058;-72
2022/10/27 16:01:44;;;;;;;8.48;2.10;;;20.00;59.10;;;;;;6277307;22;20313;-73
2022/10/27 16:04:27;;;;;;;5.63;2.08;;;20.00;59.20;;;;;;6250115;22;20420;-73
2022/10/27 16:07:13;;;;;;;4.68;1.92;;;19.80;59.40;;;;;;6277389;22;19999;-72
2022/10/27 16:09:43;;;;;;;3.08;2.08;;;19.70;59.60;;;;;;6249916;22;20355;-72
2022/10/27 16:12:16;;;;;;;5.57;2.13;;;19.70;59.60;;;;;;6250174;22;20010;-73
2022/10/27 16:15:15;;;;;;;7.85;2.55;;;19.60;59.90;;;;;;6277472;22;19992;-72
2022/10/27 16:17:45;;;;;;;11.88;2.30;;;19.50;60.00;;;;;;6216911;22;20010;-72
2022/10/27 16:20:32;;;;;;;9.15;3.08;;;19.40;60.00;;;;;;6250235;22;20424;-72
2022/10/27 16:23:01;;;;;;;8.55;2.72;;;19.20;60.40;;;;;;6276916;22;20462;-73
2022/10/27 16:25:30;;;;;;;8.73;3.03;;;19.10;60.50;;;;;;6249986;22;20061;-72
2022/10/27 16:27:57;;;;;;;11.25;4.35;;;19.10;60.70;;;;;;6249900;22;20439;-73
2022/10/27 16:30:23;;;;;;;17.52;6.07;;;19.00;61.00;;;;;;6276901;22;20002;-72
2022/10/27 16:32:55;;;;;;;12.45;5.90;;;18.90;61.20;;;;;;6250100;22;20007;-72
2022/10/27 16:35:21;;;;;;;12.50;7.28;;;18.80;61.60;;;;;;6250090;22;20011;-72
2022/10/27 16:37:47;;;;;;;12.73;6.75;;;18.80;61.70;;;;;;6249948;22;19999;-72
2022/10/27 16:40:14;;;;;;;9.95;4.53;;;18.70;61.60;;;;;;6249986;22;20000;-72
2022/10/27 16:42:49;;;;;;;10.65;4.50;;;18.60;62.00;;;;;;6276989;22;19999;-72
2022/10/27 16:45:20;;;;;;;10.15;4.13;;;18.50;62.20;;;;;;6249746;22;20000;-73
2022/10/27 16:47:48;;;;;;;13.15;3.85;;;18.50;62.20;;;;;;6276518;22;20447;-72
2022/10/27 16:50:14;;;;;;;6.65;3.30;;;18.40;62.50;;;;;;6249918;22;20008;-72
2022/10/27 16:52:40;;;;;;;14.15;8.10;;;18.30;62.50;;;;;;6276986;22;20000;-72
2022/10/27 16:55:10;;;;;;;13.40;7.75;;;18.30;63.00;;;;;;6277087;22;20167;-72
2022/10/27 16:57:37;;;;;;;16.35;6.35;;;18.20;63.10;;;;;;6249481;22;19999;-72
2022/10/27 17:00:05;;;;;;;11.00;5.80;;;18.10;63.30;;;;;;6249761;22;20000;-72
2022/10/27 17:02:31;;;;;;;9.13;4.25;;;18.10;63.40;;;;;;6277172;22;20004;-72
2022/10/27 17:04:57;;;;;;;9.95;3.83;;;18.10;63.30;;;;;;6248498;22;19999;-72
2022/10/27 17:07:23;;;;;;;8.30;4.28;;;18.00;63.50;;;;;;6249752;22;19999;-72
2022/10/27 17:09:51;;;;;;;7.13;3.35;;;17.90;63.50;;;;;;6249448;22;20027;-72
2022/10/27 17:12:17;;;;;;;7.97;3.03;;;17.90;63.60;;;;;;6276546;22;20000;-72
2022/10/27 17:14:43;;;;;;;6.43;3.05;;;17.80;63.70;;;;;;6276640;22;20042;-72
2022/10/27 17:17:09;;;;;;;11.23;3.95;;;17.80;63.90;;;;;;6250053;22;20000;-72
2022/10/27 17:19:35;;;;;;;6.70;3.53;;;17.70;64.00;;;;;;6249838;22;20305;-72
2022/10/27 17:22:01;;;;;;;11.45;4.68;;;17.70;64.10;;;;;;6249853;22;20000;-72
2022/10/27 17:24:28;;;;;;;8.70;3.63;;;17.60;64.30;;;;;;6276903;22;20025;-72
2022/10/27 17:26:54;;;;;;;7.43;3.65;;;17.60;64.30;;;;;;6277032;22;20319;-73
2022/10/27 17:29:20;;;;;;;5.78;3.40;;;17.60;64.70;;;;;;6224532;22;20431;-72
2022/10/27 17:31:46;;;;;;;8.38;3.95;;;17.50;64.50;;;;;;6276669;22;20057;-72
2022/10/27 17:34:12;;;;;;;7.45;3.70;;;17.40;64.80;;;;;;6249544;22;20338;-73
2022/10/27 17:36:38;;;;;;;6.18;3.42;;;17.40;64.90;;;;;;6276509;22;20355;-72
2022/10/27 17:39:04;;;;;;;10.95;4.03;;;17.30;65.10;;;;;;6249695;22;20000;-73
2022/10/27 17:41:30;;;;;;;9.98;3.28;;;17.30;65.20;;;;;;6249617;22;20053;-72
2022/10/27 17:43:57;;;;;;;7.13;3.45;;;17.30;65.30;;;;;;6276540;22;20029;-73
2022/10/27 17:46:26;;;;;;;6.35;3.70;;;17.20;65.30;;;;;;6249510;22;20015;-73
2022/10/27 17:48:55;;;;;;;6.95;3.20;;;17.20;65.40;;;;;;6249329;22;20313;-73
2022/10/27 17:51:23;;;;;;;7.32;3.47;;;17.10;65.50;;;;;;6249603;22;20004;-74
2022/10/27 17:53:50;;;;;;;7.32;3.53;;;17.10;65.60;;;;;;6249435;22;20416;-72
2022/10/27 17:56:38;;;;;;;12.18;4.22;;;17.10;65.70;;;;;;6249498;22;20035;-72
2022/10/27 17:59:06;;;;;;;13.65;6.65;;;17.00;65.60;;;;;;6277605;22;20026;-72
2022/10/27 18:01:33;;;;;;;12.15;5.97;;;17.00;65.70;;;;;;6251555;22;20078;-72
2022/10/27 18:04:05;;;;;;;13.65;5.25;;;16.90;65.80;;;;;;6278788;22;20000;-72
2022/10/27 18:06:31;;;;;;;11.95;5.53;;;16.90;66.00;;;;;;6250890;22;19996;-72
2022/10/27 18:09:00;;;;;;;7.65;3.70;;;16.80;66.10;;;;;;6251442;22;20011;-72
2022/10/27 18:11:31;;;;;;;8.20;3.60;;;16.80;66.30;;;;;;6251505;22;20054;-72
2022/10/27 18:14:02;;;;;;;9.98;3.72;;;16.80;66.40;;;;;;6251514;22;20011;-72
2022/10/27 18:16:31;;;;;;;11.95;3.53;;;16.70;66.70;;;;;;6251503;22;20011;-72
2022/10/27 18:19:02;;;;;;;5.38;3.75;;;16.70;66.70;;;;;;6251372;22;20054;-72
2022/10/27 18:21:32;;;;;;;8.45;3.92;;;16.70;67.00;;;;;;6277865;22;20000;-72
2022/10/27 18:23:59;;;;;;;7.28;3.88;;;16.60;67.10;;;;;;6251068;22;20344;-72
2022/10/27 18:26:27;;;;;;;8.90;4.13;;;16.60;67.30;;;;;;6278178;22;20000;-72
2022/10/27 18:28:53;;;;;;;8.90;4.00;;;16.60;67.20;;;;;;6277876;22;20000;-72
2022/10/27 18:31:27;;;;;;;6.90;3.88;;;16.60;67.40;;;;;;6251027;22;20004;-72
2022/10/27 18:33:54;;;;;;;8.05;3.55;;;16.50;67.30;;;;;;6251399;22;20041;-72
2022/10/27 18:36:23;;;;;;;7.95;3.33;;;16.50;67.20;;;;;;6251536;22;20374;-72
2022/10/27 18:38:55;;;;;;;14.82;5.93;;;16.50;67.20;;;;;;6278612;22;19996;-72
2022/10/27 18:41:24;;;;;;;10.57;4.95;;;16.50;67.70;;;;;;6250647;22;20308;-72
2022/10/27 18:43:51;;;;;;;11.88;5.55;;;16.40;67.50;;;;;;6225760;22;20161;-72
2022/10/27 18:46:21;;;;;;;18.60;7.72;;;16.40;67.70;;;;;;6251041;22;20012;-72
2022/10/27 18:48:59;;;;;;;7.15;4.40;;;16.40;67.70;;;;;;6250139;22;20016;-72
2022/10/27 18:51:32;;;;;;;13.93;7.15;;;16.30;68.60;;;;;;6277981;22;20049;-71
2022/10/27 18:54:04;;;;;;;15.80;6.50;;;16.40;68.00;;;;;;6277726;22;20058;-72
2022/10/27 18:56:32;;;;;;;6.18;4.00;;;16.30;67.90;;;;;;6277917;22;19996;-71
2022/10/27 18:59:03;;;;;;;7.53;3.90;;;16.30;68.00;;;;;;6278142;22;20049;-71
2022/10/27 19:01:33;;;;;;;10.23;5.28;;;16.30;68.90;;;;;;6251092;22;20004;-71
2022/10/27 19:04:07;;;;;;;12.75;5.70;;;16.20;68.10;;;;;;6277174;22;20328;-71
2022/10/27 19:06:35;;;;;;;15.20;5.53;;;16.20;68.40;;;;;;6251352;22;20082;-71
2022/10/27 19:09:02;;;;;;;11.88;5.40;;;16.20;68.40;;;;;;6250348;22;20323;-71
2022/10/27 19:11:34;;;;;;;8.60;4.25;;;16.20;68.50;;;;;;6250691;22;20010;-71
2022/10/27 19:14:02;;;;;;;7.80;4.75;;;16.10;68.80;;;;;;6250650;22;20355;-71
2022/10/27 19:16:29;;;;;;;8.70;4.60;;;16.10;68.70;;;;;;6251013;22;20027;-71
2022/10/27 19:18:57;;;;;;;8.52;5.00;;;16.10;68.80;;;;;;6250934;22;20007;-71
2022/10/27 19:21:24;;;;;;;9.02;4.47;;;16.10;68.80;;;;;;6250985;22;20027;-71
2022/10/27 19:24:11;;;;;;;7.35;3.80;;;16.10;68.80;;;;;;6249362;22;20010;-71
2022/10/27 19:26:39;;;;;;;10.48;4.25;;;16.00;69.20;;;;;;6250239;22;20011;-71
2022/10/27 19:29:05;;;;;;;8.77;4.28;;;16.00;69.00;;;;;;6277731;22;20031;-71
2022/10/27 19:31:37;;;;;;;10.30;4.90;;;16.00;69.00;;;;;;6277223;22;20359;-72
2022/10/27 19:34:04;;;;;;;10.52;5.55;;;16.00;69.40;;;;;;6250458;22;20015;-71
2022/10/27 19:36:34;;;;;;;13.32;5.32;;;16.00;69.50;;;;;;6250714;22;20411;-72
2022/10/27 19:39:07;;;;;;;11.63;5.72;;;16.00;69.70;;;;;;6250812;22;20087;-71
2022/10/27 19:41:35;;;;;;;8.70;4.65;;;15.90;69.70;;;;;;6250128;22;20000;-72
2022/10/27 19:44:29;;;;;;;13.05;5.03;;;15.90;69.40;;;;;;6249997;22;20395;-72
2022/10/27 19:46:56;;;;;;;9.32;5.55;;;15.90;69.60;;;;;;6249909;22;20374;-72
2022/10/27 19:49:23;;;;;;;9.52;4.88;;;15.90;69.40;;;;;;6276875;22;20427;-72
2022/10/27 19:51:51;;;;;;;14.65;5.25;;;15.90;69.40;;;;;;6250370;22;20000;-72
2022/10/27 19:54:20;;;;;;;13.35;5.35;;;15.90;69.40;;;;;;6276963;22;20000;-72
2022/10/27 19:56:47;;;;;;;11.43;4.93;;;15.80;69.50;;;;;;6277500;22;20003;-72
2022/10/27 19:59:19;;;;;;;9.07;4.32;;;15.80;69.60;;;;;;6277068;22;19999;-72
2022/10/27 20:01:47;;;;;;;7.63;4.57;;;15.80;69.70;;;;;;6277213;22;19999;-72
2022/10/27 20:04:17;;;;;;;9.02;5.93;;;15.80;69.60;;;;;;6224240;22;20015;-73
2022/10/27 20:06:45;;;;;;;11.45;6.15;;;15.80;69.60;;;;;;6249869;22;19999;-72
2022/10/27 20:09:21;;;;;;;13.57;6.55;;;15.80;69.60;;;;;;6250478;22;20056;-72
2022/10/27 20:11:48;;;;;;;15.02;6.30;;;15.70;69.70;;;;;;6250336;22;20347;-72
2022/10/27 20:14:17;;;;;;;16.95;6.88;;;15.70;69.70;;;;;;6248971;22;20039;-72
2022/10/27 20:16:46;;;;;;;13.02;6.07;;;15.70;69.80;;;;;;6276476;22;20442;-72
2022/10/27 20:19:17;;;;;;;15.38;11.55;;;15.70;69.70;;;;;;6249688;22;20007;-72
2022/10/27 20:21:44;;;;;;;20.27;12.93;;;15.60;69.70;;;;;;6249931;22;19999;-72
2022/10/27 20:24:19;;;;;;;18.45;8.70;;;15.60;69.70;;;;;;6275566;22;20008;-72
2022/10/27 20:26:49;;;;;;;13.88;7.07;;;15.60;69.70;;;;;;6277576;22;20006;-72
2022/10/27 20:29:16;;;;;;;12.57;7.05;;;15.60;69.80;;;;;;6249436;22;20010;-72
2022/10/27 20:31:54;;;;;;;13.85;7.05;;;15.50;69.60;;;;;;6248949;22;20010;-71
2022/10/27 20:34:25;;;;;;;21.38;9.30;;;15.50;69.90;;;;;;6275627;22;20019;-71
2022/10/27 20:36:58;;;;;;;24.92;11.38;;;15.50;69.80;;;;;;6276328;22;20070;-72
2022/10/27 20:39:25;;;;;;;24.63;12.48;;;15.50;69.90;;;;;;6275480;22;20424;-71
2022/10/27 20:41:51;;;;;;;19.13;11.80;;;15.40;69.70;;;;;;6276694;22;19996;-72
2022/10/27 20:44:17;;;;;;;31.73;17.60;;;15.40;69.70;;;;;;6249987;22;20007;-72
2022/10/27 20:47:01;;;;;;;41.45;20.20;;;15.40;69.80;;;;;;6249685;22;20061;-72
2022/10/27 20:49:28;;;;;;;40.72;19.40;;;15.30;70.00;;;;;;6276348;22;20069;-71
2022/10/27 20:52:11;;;;;;;85.18;36.15;;;15.30;70.00;;;;;;6276578;22;20327;-71
2022/10/27 20:54:37;;;;;;;110.53;50.03;;;15.30;71.10;;;;;;6249636;22;20383;-72
2022/10/27 20:57:03;;;;;;;95.20;43.58;;;15.30;70.20;;;;;;6249763;22;20331;-72
2022/10/27 20:59:29;;;;;;;54.00;26.70;;;15.30;70.30;;;;;;6276312;22;20066;-71
2022/10/27 21:02:00;;;;;;;34.95;17.85;;;15.20;70.30;;;;;;6249570;22;20004;-72
2022/10/27 21:04:26;;;;;;;40.42;18.38;;;15.20;70.30;;;;;;6276961;22;20007;-71
2022/10/27 21:06:52;;;;;;;36.60;14.75;;;15.20;70.30;;;;;;6275682;22;19999;-72
2022/10/27 21:09:20;;;;;;;22.80;12.02;;;15.20;70.20;;;;;;6277143;22;19992;-71
2022/10/27 21:11:46;;;;;;;32.17;11.18;;;15.10;70.20;;;;;;6276678;22;20313;-71
2022/10/27 21:14:13;;;;;;;21.45;10.07;;;15.10;70.20;;;;;;6275428;22;20011;-72
2022/10/27 21:17:29;;;;;;;17.38;9.45;;;15.10;70.30;;;;;;6249320;22;20046;-72
2022/10/27 21:19:55;;;;;;;15.40;8.73;;;15.10;70.50;;;;;;6249923;22;20061;-71
2022/10/27 21:22:20;;;;;;;20.42;6.97;;;15.10;70.30;;;;;;6249960;22;20000;-71
2022/10/27 21:24:46;;;;;;;12.95;6.40;;;15.00;70.40;;;;;;6249950;22;20290;-71
2022/10/27 21:27:12;;;;;;;16.13;6.25;;;15.00;70.40;;;;;;6250067;22;20000;-72
2022/10/27 21:29:45;;;;;;;10.35;5.65;;;15.00;70.40;;;;;;6276847;22;20006;-71
2022/10/27 21:32:12;;;;;;;7.43;4.37;;;15.00;70.60;;;;;;6276914;22;20102;-71
2022/10/27 21:34:37;;;;;;;13.73;4.80;;;15.00;70.60;;;;;;6251806;22;20242;-71
2022/10/27 21:37:03;;;;;;;14.50;5.45;;;14.90;70.40;;;;;;6251979;22;20007;-71
2022/10/27 21:39:29;;;;;;;10.70;5.78;;;14.90;70.50;;;;;;6252130;22;20004;-71
2022/10/27 21:41:55;;;;;;;7.53;4.68;;;14.90;70.60;;;;;;6251616;22;20000;-71
2022/10/27 21:44:21;;;;;;;9.80;5.53;;;14.90;70.60;;;;;;6279133;22;20003;-71
2022/10/27 21:46:47;;;;;;;15.00;4.93;;;14.90;70.60;;;;;;6279245;22;20011;-71
2022/10/27 21:49:13;;;;;;;10.75;4.38;;;14.90;70.80;;;;;;6251380;22;20016;-71
2022/10/27 21:51:42;;;;;;;8.90;4.63;;;14.80;70.90;;;;;;6251984;22;20447;-71
2022/10/27 21:54:18;;;;;;;14.25;5.10;;;14.80;70.90;;;;;;6250927;22;20007;-71
2022/10/27 21:56:47;;;;;;;9.60;4.95;;;14.80;71.00;;;;;;6278578;22;20004;-71
2022/10/27 21:59:14;;;;;;;9.25;4.50;;;14.80;71.00;;;;;;6251686;22;20010;-71
2022/10/27 22:01:39;;;;;;;10.82;4.50;;;14.80;71.00;;;;;;6279020;22;19996;-72
2022/10/27 22:04:05;;;;;;;9.75;4.75;;;14.80;71.00;;;;;;6251925;22;20027;-71
2022/10/27 22:07:12;;;;;;;8.02;3.95;;;14.70;71.00;;;;;;6250932;22;20122;-72
2022/10/27 22:09:38;;;;;;;9.40;4.97;;;14.70;71.20;;;;;;6251417;22;20003;-72
2022/10/27 22:12:07;;;;;;;12.75;4.88;;;14.70;71.00;;;;;;6250949;22;20000;-71
2022/10/27 22:14:36;;;;;;;10.07;5.03;;;14.70;71.00;;;;;;6251584;22;20014;-71
2022/10/27 22:17:02;;;;;;;8.20;4.00;;;14.70;71.10;;;;;;6251222;22;20388;-71
2022/10/27 22:19:29;;;;;;;10.90;4.35;;;14.70;71.20;;;;;;6249563;22;20029;-71
2022/10/27 22:22:05;;;;;;;8.30;4.53;;;14.70;71.20;;;;;;6248975;22;20007;-72
2022/10/27 22:24:34;;;;;;;8.43;4.72;;;14.60;71.30;;;;;;6249999;22;20095;-72
2022/10/27 22:26:59;;;;;;;7.50;3.80;;;14.60;71.30;;;;;;6249990;22;19996;-71
2022/10/27 22:29:25;;;;;;;7.25;4.28;;;14.60;71.30;;;;;;6249985;22;20010;-71
2022/10/27 22:31:57;;;;;;;12.52;3.92;;;14.60;71.40;;;;;;6249784;22;19995;-72
2022/10/27 22:34:28;;;;;;;6.55;2.90;;;14.60;71.50;;;;;;6250843;22;20004;-71
2022/10/27 22:40:24;;;;;;;6.22;3.05;;;14.60;71.50;;;;;;6154398;23;20088;-71
2022/10/27 22:42:50;;;;;;;5.88;3.20;;;14.60;72.00;;;;;;6154413;23;20358;-71
2022/10/27 22:45:36;;;;;;;7.47;3.20;;;14.60;71.30;;;;;;6154346;23;19998;-71
2022/10/27 22:48:05;;;;;;;7.03;3.97;;;14.50;71.40;;;;;;6129437;23;20021;-71
2022/10/27 22:50:31;;;;;;;7.60;4.10;;;14.50;71.40;;;;;;6154535;23;20034;-71
2022/10/27 22:52:57;;;;;;;6.45;3.60;;;14.50;71.40;;;;;;6154822;23;20014;-71
2022/10/27 22:55:23;;;;;;;4.45;2.92;;;14.50;71.40;;;;;;6154673;23;20025;-72
2022/10/27 22:57:51;;;;;;;8.32;4.20;;;14.50;71.40;;;;;;6154727;23;20384;-71
2022/10/27 23:00:17;;;;;;;8.48;4.43;;;14.40;71.30;;;;;;6153956;23;20001;-71
2022/10/27 23:02:48;;;;;;;7.38;3.70;;;14.40;71.30;;;;;;6154431;23;20025;-71
2022/10/27 23:05:14;;;;;;;6.70;3.38;;;14.40;71.40;;;;;;6154631;23;20005;-71
2022/10/27 23:07:40;;;;;;;6.22;3.70;;;14.40;71.40;;;;;;6154568;23;20005;-72
2022/10/27 23:10:06;;;;;;;5.68;2.95;;;14.40;71.40;;;;;;6177289;22;20000;-71
2022/10/27 23:12:33;;;;;;;9.13;4.05;;;14.40;71.40;;;;;;6251174;22;19996;-71
2022/10/27 23:14:59;;;;;;;6.25;3.55;;;14.30;71.40;;;;;;6250509;22;20003;-72
2022/10/27 23:17:24;;;;;;;7.15;4.15;;;14.30;71.40;;;;;;6250872;22;20008;-71
2022/10/27 23:19:50;;;;;;;9.68;3.88;;;14.30;71.40;;;;;;6278290;22;20347;-71
2022/10/27 23:22:19;;;;;;;4.95;3.33;;;14.30;71.50;;;;;;6250936;22;20364;-73
2022/10/27 23:24:47;;;;;;;7.78;3.65;;;14.30;71.50;;;;;;6278044;22;20027;-71
2022/10/27 23:27:15;;;;;;;9.63;4.28;;;14.20;71.50;;;;;;6278259;22;19992;-72
2022/10/27 23:29:41;;;;;;;8.30;3.83;;;14.20;71.60;;;;;;6250890;22;20000;-71
2022/10/27 23:32:10;;;;;;;7.45;4.05;;;14.30;71.80;;;;;;6250844;22;20364;-72
2022/10/27 23:34:39;;;;;;;8.35;3.72;;;14.30;71.70;;;;;;6250451;22;20031;-72
2022/10/27 23:37:05;;;;;;;9.23;3.97;;;14.20;71.70;;;;;;6276405;22;20008;-72
2022/10/27 23:40:29;;;;;;;13.07;3.90;;;14.20;71.70;;;;;;6275777;22;19996;-72
2022/10/27 23:42:58;;;;;;;8.10;4.22;;;14.20;71.90;;;;;;6248622;22;20012;-72
2022/10/27 23:45:31;;;;;;;9.13;4.40;;;14.20;71.80;;;;;;6248173;22;20003;-71
2022/10/27 23:48:16;;;;;;;7.68;4.75;;;14.10;71.90;;;;;;6275745;22;20359;-72
2022/10/27 23:50:42;;;;;;;7.63;3.90;;;14.20;72.10;;;;;;6249353;22;20026;-71
2022/10/27 23:57:36;;;;;;;5.78;3.70;;;14.10;72.10;;;;;;6152838;23;20009;-71
